sensor_id;sensor_type;location;lat;lon;timestamp;temperature;humidity
47090;DHT22;32840;52.516;13.294;2023-04-12T00:02:38;7.50;99.90
47090;DHT22;32840;52.516;13.294;2023-04-12T00:05:22;7.50;99.90
47090;DHT22;32840;52.516;13.294;2023-04-12T00:08:10;7.60;99.90
47090;DHT22;32840;52.516;13.294;2023-04-12T00:10:55;7.60;99.90
47090;DHT22;32840;52.516;13.294;2023-04-12T00:13:40;7.70;99.90
47090;DHT22;32840;52.516;13.294;2023-04-12T00:16:25;7.70;99.90
47090;DHT22;32840;52.516;13.294;2023-04-12T00:19:09;7.70;99.90
47090;DHT22;32840;52.516;13.294;2023-04-12T00:21:54;7.60;99.90
47090;DHT22;32840;52.516;13.294;2023-04-12T00:24:40;7.60;99.90
47090;DHT22;32840;52.516;13.294;2023-04-12T00:27:25;7.50;99.90
47090;DHT22;32840;52.516;13.294;2023-04-12T00:30:10;7.50;99.90
47090;DHT22;32840;52.516;13.294;2023-04-12T00:32:55;7.50;99.90
47090;DHT22;32840;52.516;13.294;2023-04-12T00:35:40;7.50;99.90
47090;DHT22;32840;52.516;13.294;2023-04-12T00:38:25;7.40;99.90
47090;DHT22;32840;52.516;13.294;2023-04-12T00:41:09;7.40;99.90
47090;DHT22;32840;52.516;13.294;2023-04-12T00:43:54;7.40;99.90
47090;DHT22;32840;52.516;13.294;2023-04-12T00:46:39;7.40;99.90
47090;DHT22;32840;52.516;13.294;2023-04-12T00:49:27;7.40;99.90
47090;DHT22;32840;52.516;13.294;2023-04-12T00:52:14;7.40;99.90
47090;DHT22;32840;52.516;13.294;2023-04-12T00:55:05;7.40;99.90
47090;DHT22;32840;52.516;13.294;2023-04-12T00:57:50;7.40;99.90
47090;DHT22;32840;52.516;13.294;2023-04-12T01:00:36;7.40;99.90
47090;DHT22;32840;52.516;13.294;2023-04-12T01:03:21;7.20;99.90
47090;DHT22;32840;52.516;13.294;2023-04-12T01:06:12;7.20;99.90
47090;DHT22;32840;52.516;13.294;2023-04-12T01:12:29;7.10;99.90
47090;DHT22;32840;52.516;13.294;2023-04-12T01:15:20;7.10;99.90
47090;DHT22;32840;52.516;13.294;2023-04-12T01:18:11;7.20;99.90
47090;DHT22;32840;52.516;13.294;2023-04-12T01:21:07;7.20;99.90
47090;DHT22;32840;52.516;13.294;2023-04-12T01:24:18;7.20;99.90
47090;DHT22;32840;52.516;13.294;2023-04-12T01:29:57;7.00;99.90
47090;DHT22;32840;52.516;13.294;2023-04-12T01:32:50;7.00;99.90
47090;DHT22;32840;52.516;13.294;2023-04-12T01:35:37;7.10;99.90
47090;DHT22;32840;52.516;13.294;2023-04-12T01:38:23;7.00;99.90
47090;DHT22;32840;52.516;13.294;2023-04-12T01:41:09;6.80;99.90
47090;DHT22;32840;52.516;13.294;2023-04-12T01:43:54;6.70;99.90
47090;DHT22;32840;52.516;13.294;2023-04-12T01:46:39;6.70;99.90
47090;DHT22;32840;52.516;13.294;2023-04-12T01:49:25;6.70;99.90
47090;DHT22;32840;52.516;13.294;2023-04-12T01:52:18;6.70;99.90
47090;DHT22;32840;52.516;13.294;2023-04-12T01:55:05;6.70;99.90
47090;DHT22;32840;52.516;13.294;2023-04-12T01:57:51;6.60;99.90
47090;DHT22;32840;52.516;13.294;2023-04-12T02:00:36;6.60;99.90
47090;DHT22;32840;52.516;13.294;2023-04-12T02:03:22;6.60;99.90
47090;DHT22;32840;52.516;13.294;2023-04-12T02:06:08;6.60;99.90
47090;DHT22;32840;52.516;13.294;2023-04-12T02:09:01;6.70;99.90
47090;DHT22;32840;52.516;13.294;2023-04-12T02:11:47;6.70;99.90
47090;DHT22;32840;52.516;13.294;2023-04-12T02:14:32;6.60;99.90
47090;DHT22;32840;52.516;13.294;2023-04-12T02:17:17;6.50;99.90
47090;DHT22;32840;52.516;13.294;2023-04-12T02:20:03;6.40;99.90
47090;DHT22;32840;52.516;13.294;2023-04-12T02:22:53;6.40;99.90
47090;DHT22;32840;52.516;13.294;2023-04-12T02:25:38;6.40;99.90
47090;DHT22;32840;52.516;13.294;2023-04-12T02:28:24;6.40;99.90
47090;DHT22;32840;52.516;13.294;2023-04-12T02:31:09;6.40;99.90
47090;DHT22;32840;52.516;13.294;2023-04-12T02:33:54;6.50;99.90
47090;DHT22;32840;52.516;13.294;2023-04-12T02:36:39;6.50;99.90
47090;DHT22;32840;52.516;13.294;2023-04-12T02:39:23;6.60;99.90
47090;DHT22;32840;52.516;13.294;2023-04-12T02:42:09;6.50;99.90
47090;DHT22;32840;52.516;13.294;2023-04-12T02:44:54;6.50;99.90
47090;DHT22;32840;52.516;13.294;2023-04-12T02:47:39;6.50;99.90
47090;DHT22;32840;52.516;13.294;2023-04-12T02:50:24;6.40;99.90
47090;DHT22;32840;52.516;13.294;2023-04-12T02:53:09;6.40;99.90
47090;DHT22;32840;52.516;13.294;2023-04-12T02:55:54;6.40;99.90
47090;DHT22;32840;52.516;13.294;2023-04-12T02:58:40;6.40;99.90
47090;DHT22;32840;52.516;13.294;2023-04-12T03:01:25;6.40;99.90
47090;DHT22;32840;52.516;13.294;2023-04-12T03:04:10;6.20;99.90
47090;DHT22;32840;52.516;13.294;2023-04-12T03:06:55;6.20;99.90
47090;DHT22;32840;52.516;13.294;2023-04-12T03:09:40;6.20;99.90
47090;DHT22;32840;52.516;13.294;2023-04-12T03:12:26;6.20;99.90
47090;DHT22;32840;52.516;13.294;2023-04-12T03:15:11;6.10;99.90
47090;DHT22;32840;52.516;13.294;2023-04-12T03:17:55;6.00;99.90
47090;DHT22;32840;52.516;13.294;2023-04-12T03:20:40;6.00;99.90
47090;DHT22;32840;52.516;13.294;2023-04-12T03:23:27;6.00;99.90
47090;DHT22;32840;52.516;13.294;2023-04-12T03:26:12;6.00;99.90
47090;DHT22;32840;52.516;13.294;2023-04-12T03:28:59;6.00;99.90
47090;DHT22;32840;52.516;13.294;2023-04-12T03:31:45;6.10;99.90
47090;DHT22;32840;52.516;13.294;2023-04-12T03:34:29;6.20;99.90
47090;DHT22;32840;52.516;13.294;2023-04-12T03:37:15;6.10;99.90
47090;DHT22;32840;52.516;13.294;2023-04-12T03:40:00;6.10;99.90
47090;DHT22;32840;52.516;13.294;2023-04-12T03:42:45;6.10;99.90
47090;DHT22;32840;52.516;13.294;2023-04-12T03:45:30;6.00;99.90
47090;DHT22;32840;52.516;13.294;2023-04-12T03:48:15;6.00;99.90
47090;DHT22;32840;52.516;13.294;2023-04-12T03:51:00;6.10;99.90
47090;DHT22;32840;52.516;13.294;2023-04-12T03:53:52;6.10;99.90
47090;DHT22;32840;52.516;13.294;2023-04-12T03:56:37;6.20;99.90
47090;DHT22;32840;52.516;13.294;2023-04-12T03:59:22;6.20;99.90
47090;DHT22;32840;52.516;13.294;2023-04-12T04:02:07;6.20;99.90
47090;DHT22;32840;52.516;13.294;2023-04-12T04:04:52;6.10;99.90
47090;DHT22;32840;52.516;13.294;2023-04-12T04:07:37;6.10;99.90
47090;DHT22;32840;52.516;13.294;2023-04-12T04:10:22;6.00;99.90
47090;DHT22;32840;52.516;13.294;2023-04-12T04:13:06;6.00;99.90
47090;DHT22;32840;52.516;13.294;2023-04-12T04:15:58;6.10;99.90
47090;DHT22;32840;52.516;13.294;2023-04-12T04:18:43;6.10;99.90
47090;DHT22;32840;52.516;13.294;2023-04-12T04:21:28;6.10;99.90
47090;DHT22;32840;52.516;13.294;2023-04-12T04:24:14;6.20;99.90
47090;DHT22;32840;52.516;13.294;2023-04-12T04:26:59;6.30;99.90
47090;DHT22;32840;52.516;13.294;2023-04-12T04:29:44;6.20;99.90
47090;DHT22;32840;52.516;13.294;2023-04-12T04:32:30;6.20;99.90
47090;DHT22;32840;52.516;13.294;2023-04-12T04:35:15;6.10;99.90
47090;DHT22;32840;52.516;13.294;2023-04-12T04:38:00;6.00;99.90
47090;DHT22;32840;52.516;13.294;2023-04-12T04:40:46;5.90;99.90
47090;DHT22;32840;52.516;13.294;2023-04-12T04:43:34;5.80;99.90
47090;DHT22;32840;52.516;13.294;2023-04-12T04:46:23;5.80;99.90
47090;DHT22;32840;52.516;13.294;2023-04-12T04:49:09;5.80;99.90
47090;DHT22;32840;52.516;13.294;2023-04-12T04:51:54;5.80;99.90
47090;DHT22;32840;52.516;13.294;2023-04-12T04:54:38;5.70;99.90
47090;DHT22;32840;52.516;13.294;2023-04-12T04:57:24;5.60;99.90
47090;DHT22;32840;52.516;13.294;2023-04-12T05:00:10;5.60;99.90
47090;DHT22;32840;52.516;13.294;2023-04-12T05:02:55;5.60;99.90
47090;DHT22;32840;52.516;13.294;2023-04-12T05:09:21;5.60;99.90
47090;DHT22;32840;52.516;13.294;2023-04-12T05:12:06;5.60;99.90
47090;DHT22;32840;52.516;13.294;2023-04-12T05:14:51;5.60;99.90
47090;DHT22;32840;52.516;13.294;2023-04-12T05:17:35;5.70;99.90
47090;DHT22;32840;52.516;13.294;2023-04-12T05:20:20;5.80;99.90
47090;DHT22;32840;52.516;13.294;2023-04-12T05:23:05;5.90;99.90
47090;DHT22;32840;52.516;13.294;2023-04-12T05:25:50;5.90;99.90
47090;DHT22;32840;52.516;13.294;2023-04-12T05:28:35;6.00;99.90
47090;DHT22;32840;52.516;13.294;2023-04-12T05:31:20;6.00;99.90
47090;DHT22;32840;52.516;13.294;2023-04-12T05:34:05;6.10;99.90
47090;DHT22;32840;52.516;13.294;2023-04-12T05:36:50;6.10;99.90
47090;DHT22;32840;52.516;13.294;2023-04-12T05:39:35;6.10;99.90
47090;DHT22;32840;52.516;13.294;2023-04-12T05:42:20;6.20;99.90
47090;DHT22;32840;52.516;13.294;2023-04-12T05:45:05;6.20;99.90
47090;DHT22;32840;52.516;13.294;2023-04-12T05:47:50;6.30;99.90
47090;DHT22;32840;52.516;13.294;2023-04-12T05:50:35;6.40;99.90
47090;DHT22;32840;52.516;13.294;2023-04-12T05:53:20;6.60;99.90
47090;DHT22;32840;52.516;13.294;2023-04-12T05:56:05;6.70;99.90
47090;DHT22;32840;52.516;13.294;2023-04-12T05:58:50;6.80;99.90
47090;DHT22;32840;52.516;13.294;2023-04-12T06:01:36;6.80;99.90
47090;DHT22;32840;52.516;13.294;2023-04-12T06:04:22;6.90;99.90
47090;DHT22;32840;52.516;13.294;2023-04-12T06:07:07;7.00;99.90
47090;DHT22;32840;52.516;13.294;2023-04-12T06:09:53;7.10;99.90
47090;DHT22;32840;52.516;13.294;2023-04-12T06:12:38;7.10;99.90
47090;DHT22;32840;52.516;13.294;2023-04-12T06:15:23;7.20;99.90
47090;DHT22;32840;52.516;13.294;2023-04-12T06:18:08;7.30;99.90
47090;DHT22;32840;52.516;13.294;2023-04-12T06:20:52;7.30;99.90
47090;DHT22;32840;52.516;13.294;2023-04-12T06:23:37;7.40;99.90
47090;DHT22;32840;52.516;13.294;2023-04-12T06:26:22;7.40;99.90
47090;DHT22;32840;52.516;13.294;2023-04-12T06:29:07;7.50;99.90
47090;DHT22;32840;52.516;13.294;2023-04-12T06:31:52;7.50;99.90
47090;DHT22;32840;52.516;13.294;2023-04-12T06:34:37;7.50;99.90
47090;DHT22;32840;52.516;13.294;2023-04-12T06:37:22;7.60;99.90
47090;DHT22;32840;52.516;13.294;2023-04-12T06:40:07;7.70;99.90
47090;DHT22;32840;52.516;13.294;2023-04-12T06:42:52;7.70;99.90
47090;DHT22;32840;52.516;13.294;2023-04-12T06:45:37;7.90;99.90
47090;DHT22;32840;52.516;13.294;2023-04-12T06:48:22;8.00;99.90
47090;DHT22;32840;52.516;13.294;2023-04-12T06:51:07;8.10;99.90
47090;DHT22;32840;52.516;13.294;2023-04-12T06:53:52;8.10;99.90
47090;DHT22;32840;52.516;13.294;2023-04-12T06:56:37;8.20;99.90
47090;DHT22;32840;52.516;13.294;2023-04-12T06:59:23;8.30;99.90
47090;DHT22;32840;52.516;13.294;2023-04-12T07:02:08;8.40;99.90
47090;DHT22;32840;52.516;13.294;2023-04-12T07:04:53;8.50;99.90
47090;DHT22;32840;52.516;13.294;2023-04-12T07:07:38;8.50;99.90
47090;DHT22;32840;52.516;13.294;2023-04-12T07:10:22;8.70;99.90
47090;DHT22;32840;52.516;13.294;2023-04-12T07:13:07;8.70;99.90
47090;DHT22;32840;52.516;13.294;2023-04-12T07:15:52;8.80;99.90
47090;DHT22;32840;52.516;13.294;2023-04-12T07:18:40;8.90;99.90
47090;DHT22;32840;52.516;13.294;2023-04-12T07:21:24;8.90;99.90
47090;DHT22;32840;52.516;13.294;2023-04-12T07:24:10;9.00;99.90
47090;DHT22;32840;52.516;13.294;2023-04-12T07:26:55;9.10;99.90
47090;DHT22;32840;52.516;13.294;2023-04-12T07:29:40;9.10;99.90
47090;DHT22;32840;52.516;13.294;2023-04-12T07:32:25;9.20;99.90
47090;DHT22;32840;52.516;13.294;2023-04-12T07:35:10;9.40;99.90
47090;DHT22;32840;52.516;13.294;2023-04-12T07:37:55;9.60;99.90
47090;DHT22;32840;52.516;13.294;2023-04-12T07:40:40;9.70;99.90
47090;DHT22;32840;52.516;13.294;2023-04-12T07:43:25;9.80;99.90
47090;DHT22;32840;52.516;13.294;2023-04-12T07:46:10;9.90;99.90
47090;DHT22;32840;52.516;13.294;2023-04-12T07:48:55;10.00;99.90
47090;DHT22;32840;52.516;13.294;2023-04-12T07:51:40;10.10;99.90
47090;DHT22;32840;52.516;13.294;2023-04-12T07:54:26;10.40;99.90
47090;DHT22;32840;52.516;13.294;2023-04-12T07:57:11;10.90;99.90
47090;DHT22;32840;52.516;13.294;2023-04-12T07:59:56;11.40;99.90
47090;DHT22;32840;52.516;13.294;2023-04-12T08:02:41;11.90;98.80
47090;DHT22;32840;52.516;13.294;2023-04-12T08:05:26;12.40;98.30
47090;DHT22;32840;52.516;13.294;2023-04-12T08:08:11;12.70;97.20
47090;DHT22;32840;52.516;13.294;2023-04-12T08:10:56;13.20;92.30
47090;DHT22;32840;52.516;13.294;2023-04-12T08:13:41;13.40;90.80
47090;DHT22;32840;52.516;13.294;2023-04-12T08:16:25;13.50;84.90
47090;DHT22;32840;52.516;13.294;2023-04-12T08:19:11;13.60;85.90
47090;DHT22;32840;52.516;13.294;2023-04-12T08:21:56;13.90;84.10
47090;DHT22;32840;52.516;13.294;2023-04-12T08:24:40;14.30;81.60
47090;DHT22;32840;52.516;13.294;2023-04-12T08:27:27;14.50;79.60
47090;DHT22;32840;52.516;13.294;2023-04-12T08:30:12;14.60;77.60
47090;DHT22;32840;52.516;13.294;2023-04-12T08:32:57;14.80;72.40
47090;DHT22;32840;52.516;13.294;2023-04-12T08:35:42;14.80;70.00
47090;DHT22;32840;52.516;13.294;2023-04-12T08:38:27;14.80;69.70
47090;DHT22;32840;52.516;13.294;2023-04-12T08:41:12;14.90;70.90
47090;DHT22;32840;52.516;13.294;2023-04-12T08:43:58;15.00;69.80
47090;DHT22;32840;52.516;13.294;2023-04-12T08:46:43;15.40;67.00
47090;DHT22;32840;52.516;13.294;2023-04-12T08:49:30;15.50;65.80
47090;DHT22;32840;52.516;13.294;2023-04-12T08:52:16;15.40;64.80
47090;DHT22;32840;52.516;13.294;2023-04-12T08:55:07;15.50;63.20
47090;DHT22;32840;52.516;13.294;2023-04-12T08:57:55;15.50;62.50
47090;DHT22;32840;52.516;13.294;2023-04-12T09:00:41;15.70;62.70
47090;DHT22;32840;52.516;13.294;2023-04-12T09:03:26;15.70;62.50
47090;DHT22;32840;52.516;13.294;2023-04-12T09:06:12;15.80;62.50
47090;DHT22;32840;52.516;13.294;2023-04-12T09:08:58;15.80;59.80
47090;DHT22;32840;52.516;13.294;2023-04-12T09:11:44;16.00;61.80
47090;DHT22;32840;52.516;13.294;2023-04-12T09:14:29;16.20;58.70
47090;DHT22;32840;52.516;13.294;2023-04-12T09:17:22;16.00;58.50
47090;DHT22;32840;52.516;13.294;2023-04-12T09:23:22;16.10;58.50
47090;DHT22;32840;52.516;13.294;2023-04-12T09:26:26;16.30;58.90
47090;DHT22;32840;52.516;13.294;2023-04-12T09:29:22;16.20;57.00
47090;DHT22;32840;52.516;13.294;2023-04-12T09:32:09;16.00;57.60
47090;DHT22;32840;52.516;13.294;2023-04-12T09:34:56;16.10;57.30
47090;DHT22;32840;52.516;13.294;2023-04-12T09:37:41;16.00;57.20
47090;DHT22;32840;52.516;13.294;2023-04-12T09:40:26;15.90;56.40
47090;DHT22;32840;52.516;13.294;2023-04-12T09:43:11;16.00;57.10
47090;DHT22;32840;52.516;13.294;2023-04-12T09:46:08;16.20;55.90
47090;DHT22;32840;52.516;13.294;2023-04-12T09:48:56;16.20;56.70
47090;DHT22;32840;52.516;13.294;2023-04-12T09:51:50;16.40;57.30
47090;DHT22;32840;52.516;13.294;2023-04-12T09:54:46;16.40;55.30
47090;DHT22;32840;52.516;13.294;2023-04-12T09:57:32;16.40;54.40
47090;DHT22;32840;52.516;13.294;2023-04-12T10:00:18;16.40;53.70
47090;DHT22;32840;52.516;13.294;2023-04-12T10:03:03;16.50;54.20
47090;DHT22;32840;52.516;13.294;2023-04-12T10:05:50;16.40;53.90
47090;DHT22;32840;52.516;13.294;2023-04-12T10:08:36;16.30;54.10
47090;DHT22;32840;52.516;13.294;2023-04-12T10:11:21;16.30;51.80
47090;DHT22;32840;52.516;13.294;2023-04-12T10:14:07;16.30;52.70
47090;DHT22;32840;52.516;13.294;2023-04-12T10:16:59;16.10;54.00
47090;DHT22;32840;52.516;13.294;2023-04-12T10:19:44;16.30;53.20
47090;DHT22;32840;52.516;13.294;2023-04-12T10:22:28;16.30;52.40
47090;DHT22;32840;52.516;13.294;2023-04-12T10:25:18;16.10;52.60
47090;DHT22;32840;52.516;13.294;2023-04-12T10:28:19;15.90;52.70
47090;DHT22;32840;52.516;13.294;2023-04-12T10:31:30;15.80;53.30
47090;DHT22;32840;52.516;13.294;2023-04-12T10:34:15;15.80;53.90
47090;DHT22;32840;52.516;13.294;2023-04-12T10:37:00;15.70;53.10
47090;DHT22;32840;52.516;13.294;2023-04-12T10:39:52;15.70;54.10
47090;DHT22;32840;52.516;13.294;2023-04-12T10:42:36;15.70;55.10
47090;DHT22;32840;52.516;13.294;2023-04-12T10:48:35;16.10;54.00
47090;DHT22;32840;52.516;13.294;2023-04-12T10:51:24;15.90;54.10
47090;DHT22;32840;52.516;13.294;2023-04-12T10:56:55;15.70;54.00
47090;DHT22;32840;52.516;13.294;2023-04-12T10:59:51;15.50;53.10
47090;DHT22;32840;52.516;13.294;2023-04-12T11:03:03;15.50;54.70
47090;DHT22;32840;52.516;13.294;2023-04-12T11:08:45;15.60;53.10
47090;DHT22;32840;52.516;13.294;2023-04-12T11:11:33;15.50;53.40
47090;DHT22;32840;52.516;13.294;2023-04-12T11:14:26;15.50;54.00
47090;DHT22;32840;52.516;13.294;2023-04-12T11:19:58;15.50;53.70
47090;DHT22;32840;52.516;13.294;2023-04-12T11:22:43;15.50;54.30
47090;DHT22;32840;52.516;13.294;2023-04-12T11:29:13;15.60;53.60
47090;DHT22;32840;52.516;13.294;2023-04-12T11:32:05;15.70;53.50
47090;DHT22;32840;52.516;13.294;2023-04-12T11:34:50;15.70;53.10
47090;DHT22;32840;52.516;13.294;2023-04-12T11:37:35;15.70;53.40
47090;DHT22;32840;52.516;13.294;2023-04-12T11:40:21;15.80;54.10
47090;DHT22;32840;52.516;13.294;2023-04-12T11:43:06;15.80;52.90
47090;DHT22;32840;52.516;13.294;2023-04-12T11:49:32;15.60;53.40
47090;DHT22;32840;52.516;13.294;2023-04-12T11:52:18;15.80;52.70
47090;DHT22;32840;52.516;13.294;2023-04-12T11:55:04;15.80;53.30
47090;DHT22;32840;52.516;13.294;2023-04-12T11:57:52;16.00;52.30
47090;DHT22;32840;52.516;13.294;2023-04-12T12:00:40;16.00;52.60
47090;DHT22;32840;52.516;13.294;2023-04-12T12:03:25;16.20;52.00
47090;DHT22;32840;52.516;13.294;2023-04-12T12:06:11;16.30;51.30
47090;DHT22;32840;52.516;13.294;2023-04-12T12:08:56;16.30;51.70
47090;DHT22;32840;52.516;13.294;2023-04-12T12:11:41;16.50;51.40
47090;DHT22;32840;52.516;13.294;2023-04-12T12:14:26;16.50;50.40
47090;DHT22;32840;52.516;13.294;2023-04-12T12:17:15;16.50;51.10
47090;DHT22;32840;52.516;13.294;2023-04-12T12:20:00;16.60;50.70
47090;DHT22;32840;52.516;13.294;2023-04-12T12:22:48;16.60;50.50
47090;DHT22;32840;52.516;13.294;2023-04-12T12:25:32;16.50;50.90
47090;DHT22;32840;52.516;13.294;2023-04-12T12:28:17;16.50;50.50
47090;DHT22;32840;52.516;13.294;2023-04-12T12:31:05;16.60;50.20
47090;DHT22;32840;52.516;13.294;2023-04-12T12:33:54;16.60;49.90
47090;DHT22;32840;52.516;13.294;2023-04-12T12:36:40;16.60;49.80
47090;DHT22;32840;52.516;13.294;2023-04-12T12:39:25;16.50;50.30
47090;DHT22;32840;52.516;13.294;2023-04-12T12:42:11;16.60;50.20
47090;DHT22;32840;52.516;13.294;2023-04-12T12:44:57;16.60;50.10
47090;DHT22;32840;52.516;13.294;2023-04-12T12:47:46;16.60;50.30
47090;DHT22;32840;52.516;13.294;2023-04-12T12:50:34;16.50;50.10
47090;DHT22;32840;52.516;13.294;2023-04-12T12:53:21;16.50;49.90
47090;DHT22;32840;52.516;13.294;2023-04-12T12:56:10;16.50;50.70
47090;DHT22;32840;52.516;13.294;2023-04-12T12:58:54;16.70;50.30
47090;DHT22;32840;52.516;13.294;2023-04-12T13:01:39;16.60;50.00
47090;DHT22;32840;52.516;13.294;2023-04-12T13:04:24;16.60;50.00
47090;DHT22;32840;52.516;13.294;2023-04-12T13:07:10;16.60;50.20
47090;DHT22;32840;52.516;13.294;2023-04-12T13:09:54;16.70;50.00
47090;DHT22;32840;52.516;13.294;2023-04-12T13:12:39;16.70;50.70
47090;DHT22;32840;52.516;13.294;2023-04-12T13:15:24;16.70;50.00
47090;DHT22;32840;52.516;13.294;2023-04-12T13:18:09;16.80;50.70
47090;DHT22;32840;52.516;13.294;2023-04-12T13:20:55;17.00;50.10
47090;DHT22;32840;52.516;13.294;2023-04-12T13:23:40;17.00;49.30
47090;DHT22;32840;52.516;13.294;2023-04-12T13:26:25;16.90;49.30
47090;DHT22;32840;52.516;13.294;2023-04-12T13:29:10;16.80;49.30
47090;DHT22;32840;52.516;13.294;2023-04-12T13:31:54;16.60;49.60
47090;DHT22;32840;52.516;13.294;2023-04-12T13:34:39;16.60;50.00
47090;DHT22;32840;52.516;13.294;2023-04-12T13:37:24;16.50;50.00
47090;DHT22;32840;52.516;13.294;2023-04-12T13:40:09;16.50;49.80
47090;DHT22;32840;52.516;13.294;2023-04-12T13:42:54;16.50;50.40
47090;DHT22;32840;52.516;13.294;2023-04-12T13:45:39;16.60;50.60
47090;DHT22;32840;52.516;13.294;2023-04-12T13:48:23;16.70;50.70
47090;DHT22;32840;52.516;13.294;2023-04-12T13:51:08;16.80;50.50
47090;DHT22;32840;52.516;13.294;2023-04-12T13:53:54;16.80;50.00
47090;DHT22;32840;52.516;13.294;2023-04-12T13:56:38;16.60;50.70
47090;DHT22;32840;52.516;13.294;2023-04-12T13:59:24;16.50;50.70
47090;DHT22;32840;52.516;13.294;2023-04-12T14:02:09;16.40;51.20
47090;DHT22;32840;52.516;13.294;2023-04-12T14:04:54;16.40;51.20
47090;DHT22;32840;52.516;13.294;2023-04-12T14:07:38;16.50;51.70
47090;DHT22;32840;52.516;13.294;2023-04-12T14:10:23;16.50;51.70
47090;DHT22;32840;52.516;13.294;2023-04-12T14:13:08;16.50;51.30
47090;DHT22;32840;52.516;13.294;2023-04-12T14:15:53;16.50;51.60
47090;DHT22;32840;52.516;13.294;2023-04-12T14:18:39;16.40;51.20
47090;DHT22;32840;52.516;13.294;2023-04-12T14:21:24;16.40;51.30
47090;DHT22;32840;52.516;13.294;2023-04-12T14:24:12;16.30;51.00
47090;DHT22;32840;52.516;13.294;2023-04-12T14:26:57;16.20;51.50
47090;DHT22;32840;52.516;13.294;2023-04-12T14:29:44;16.10;51.30
47090;DHT22;32840;52.516;13.294;2023-04-12T14:32:29;16.10;51.20
47090;DHT22;32840;52.516;13.294;2023-04-12T14:35:14;16.10;51.60
47090;DHT22;32840;52.516;13.294;2023-04-12T14:37:58;16.00;51.70
47090;DHT22;32840;52.516;13.294;2023-04-12T14:40:44;16.00;52.50
47090;DHT22;32840;52.516;13.294;2023-04-12T14:43:28;15.90;53.50
47090;DHT22;32840;52.516;13.294;2023-04-12T14:46:15;15.80;54.30
47090;DHT22;32840;52.516;13.294;2023-04-12T14:49:01;15.70;54.90
47090;DHT22;32840;52.516;13.294;2023-04-12T14:51:46;15.70;55.00
47090;DHT22;32840;52.516;13.294;2023-04-12T14:54:31;15.70;55.30
47090;DHT22;32840;52.516;13.294;2023-04-12T14:57:16;15.70;55.20
47090;DHT22;32840;52.516;13.294;2023-04-12T15:00:01;15.70;56.20
47090;DHT22;32840;52.516;13.294;2023-04-12T15:02:48;15.70;56.90
47090;DHT22;32840;52.516;13.294;2023-04-12T15:05:34;15.70;57.00
47090;DHT22;32840;52.516;13.294;2023-04-12T15:08:19;15.80;57.00
47090;DHT22;32840;52.516;13.294;2023-04-12T15:11:04;15.70;57.50
47090;DHT22;32840;52.516;13.294;2023-04-12T15:13:49;15.60;59.30
47090;DHT22;32840;52.516;13.294;2023-04-12T15:16:35;15.50;60.50
47090;DHT22;32840;52.516;13.294;2023-04-12T15:19:22;15.40;62.10
47090;DHT22;32840;52.516;13.294;2023-04-12T15:22:07;15.30;64.00
47090;DHT22;32840;52.516;13.294;2023-04-12T15:24:54;15.30;65.60
47090;DHT22;32840;52.516;13.294;2023-04-12T15:27:39;15.10;67.30
47090;DHT22;32840;52.516;13.294;2023-04-12T15:30:24;15.00;71.30
47090;DHT22;32840;52.516;13.294;2023-04-12T15:33:09;14.90;74.70
47090;DHT22;32840;52.516;13.294;2023-04-12T15:35:54;14.70;77.20
47090;DHT22;32840;52.516;13.294;2023-04-12T15:38:42;14.60;79.50
47090;DHT22;32840;52.516;13.294;2023-04-12T15:41:33;14.50;82.10
47090;DHT22;32840;52.516;13.294;2023-04-12T15:44:20;14.50;83.80
47090;DHT22;32840;52.516;13.294;2023-04-12T15:47:08;14.40;84.70
47090;DHT22;32840;52.516;13.294;2023-04-12T15:49:53;14.40;89.00
47090;DHT22;32840;52.516;13.294;2023-04-12T15:52:38;14.30;92.40
47090;DHT22;32840;52.516;13.294;2023-04-12T15:55:26;14.30;95.60
47090;DHT22;32840;52.516;13.294;2023-04-12T15:58:11;14.30;98.70
47090;DHT22;32840;52.516;13.294;2023-04-12T16:00:56;14.20;99.60
47090;DHT22;32840;52.516;13.294;2023-04-12T16:03:41;14.10;99.90
47090;DHT22;32840;52.516;13.294;2023-04-12T16:06:30;14.10;99.90
47090;DHT22;32840;52.516;13.294;2023-04-12T16:09:19;14.00;99.90
47090;DHT22;32840;52.516;13.294;2023-04-12T16:12:05;14.00;99.90
47090;DHT22;32840;52.516;13.294;2023-04-12T16:14:51;13.90;99.90
47090;DHT22;32840;52.516;13.294;2023-04-12T16:17:35;13.90;99.90
47090;DHT22;32840;52.516;13.294;2023-04-12T16:20:21;13.90;99.90
47090;DHT22;32840;52.516;13.294;2023-04-12T16:23:06;13.90;99.90
47090;DHT22;32840;52.516;13.294;2023-04-12T16:25:51;13.90;99.90
47090;DHT22;32840;52.516;13.294;2023-04-12T16:28:36;14.00;99.90
47090;DHT22;32840;52.516;13.294;2023-04-12T16:31:21;14.00;99.90
47090;DHT22;32840;52.516;13.294;2023-04-12T16:34:08;13.90;99.90
47090;DHT22;32840;52.516;13.294;2023-04-12T16:36:54;13.80;99.90
47090;DHT22;32840;52.516;13.294;2023-04-12T16:39:39;13.80;99.90
47090;DHT22;32840;52.516;13.294;2023-04-12T16:42:24;13.80;99.90
47090;DHT22;32840;52.516;13.294;2023-04-12T16:45:11;13.80;99.90
47090;DHT22;32840;52.516;13.294;2023-04-12T16:47:59;13.80;99.90
47090;DHT22;32840;52.516;13.294;2023-04-12T16:50:44;13.80;99.90
47090;DHT22;32840;52.516;13.294;2023-04-12T16:53:32;13.80;99.90
47090;DHT22;32840;52.516;13.294;2023-04-12T16:56:16;13.70;99.90
47090;DHT22;32840;52.516;13.294;2023-04-12T16:59:03;13.70;99.90
47090;DHT22;32840;52.516;13.294;2023-04-12T17:01:48;13.80;99.90
47090;DHT22;32840;52.516;13.294;2023-04-12T17:04:33;13.70;99.90
47090;DHT22;32840;52.516;13.294;2023-04-12T17:07:18;13.70;99.90
47090;DHT22;32840;52.516;13.294;2023-04-12T17:10:03;13.70;99.90
47090;DHT22;32840;52.516;13.294;2023-04-12T17:12:50;13.70;99.90
47090;DHT22;32840;52.516;13.294;2023-04-12T17:15:36;13.60;99.90
47090;DHT22;32840;52.516;13.294;2023-04-12T17:18:22;13.50;99.90
47090;DHT22;32840;52.516;13.294;2023-04-12T17:21:06;13.40;99.90
47090;DHT22;32840;52.516;13.294;2023-04-12T17:23:51;13.40;99.90
47090;DHT22;32840;52.516;13.294;2023-04-12T17:26:37;13.40;99.90
47090;DHT22;32840;52.516;13.294;2023-04-12T17:29:22;13.30;99.90
47090;DHT22;32840;52.516;13.294;2023-04-12T17:32:07;13.30;99.90
47090;DHT22;32840;52.516;13.294;2023-04-12T17:34:52;13.30;99.90
47090;DHT22;32840;52.516;13.294;2023-04-12T17:37:39;13.30;99.90
47090;DHT22;32840;52.516;13.294;2023-04-12T17:40:24;13.30;99.90
47090;DHT22;32840;52.516;13.294;2023-04-12T17:43:09;13.20;99.90
47090;DHT22;32840;52.516;13.294;2023-04-12T17:45:57;13.20;99.90
47090;DHT22;32840;52.516;13.294;2023-04-12T17:48:46;13.10;99.90
47090;DHT22;32840;52.516;13.294;2023-04-12T17:51:31;13.10;99.90
47090;DHT22;32840;52.516;13.294;2023-04-12T17:54:19;13.10;99.90